Time;durP1;ratioP1;P1;durP2;ratioP2;P2;SDS_P1;SDS_P2;PMS_P1;PMS_P2;Temp;Humidity;BMP_temperature;BMP_pressure;BME280_temperature;BME280_humidity;BME280_pressure;Samples;Min_cycle;Max_cycle;Signal;HPM_P1;HPM_P2
2022/03/24 00:00:25;;;;;;;29.40;23.15;;;18.60;77.60;;;;;;5018827;28;20053;-66
2022/03/24 00:02:50;;;;;;;30.17;22.58;;;18.30;77.50;;;;;;5018231;28;20049;-66
2022/03/24 00:05:17;;;;;;;30.27;21.98;;;18.60;77.70;;;;;;5002243;28;20045;-66
2022/03/24 00:07:43;;;;;;;29.73;22.27;;;18.40;77.80;;;;;;5019062;28;20068;-66
2022/03/24 00:10:10;;;;;;;29.30;22.42;;;18.50;77.50;;;;;;5035747;28;20547;-66
2022/03/24 00:12:36;;;;;;;27.25;21.90;;;18.70;77.60;;;;;;5035911;28;20095;-66
2022/03/24 00:15:03;;;;;;;28.83;23.30;;;18.60;77.40;;;;;;5034978;28;20493;-66
2022/03/24 00:17:30;;;;;;;29.05;22.60;;;18.60;77.50;;;;;;5034369;28;20479;-66
2022/03/24 00:19:56;;;;;;;29.42;23.45;;;;;;;;;;5030419;28;20092;-68
2022/03/24 00:22:23;;;;;;;28.63;22.05;;;18.70;77.50;;;;;;5019160;28;20395;-66
2022/03/24 00:24:48;;;;;;;30.00;23.05;;;18.60;77.40;;;;;;5036205;28;20455;-66
2022/03/24 00:27:15;;;;;;;29.52;23.38;;;18.50;74.60;;;;;;5036586;28;20111;-71
2022/03/24 00:29:41;;;;;;;30.17;22.85;;;18.60;77.40;;;;;;5036484;28;20049;-71
2022/03/24 00:32:08;;;;;;;28.95;22.17;;;18.30;74.50;;;;;;5018240;28;20057;-71
2022/03/24 00:34:34;;;;;;;30.48;24.33;;;18.60;77.40;;;;;;5028145;28;20064;-71
2022/03/24 00:36:59;;;;;;;30.35;23.15;;;18.40;77.30;;;;;;5016686;28;20042;-69
2022/03/24 00:39:25;;;;;;;29.23;23.05;;;18.40;77.30;;;;;;5016671;28;20185;-71
2022/03/24 00:41:51;;;;;;;31.08;23.70;;;;;;;;;;5021813;28;20056;-70
2022/03/24 00:44:19;;;;;;;29.73;23.88;;;18.40;77.60;;;;;;5035979;28;20396;-71
2022/03/24 00:46:45;;;;;;;31.35;23.80;;;18.50;74.50;;;;;;5035892;28;20112;-70
2022/03/24 00:49:11;;;;;;;31.15;24.13;;;18.40;77.30;;;;;;5036200;28;20179;-71
2022/03/24 00:51:37;;;;;;;29.45;23.83;;;18.20;74.40;;;;;;5027233;28;20480;-71
2022/03/24 00:54:03;;;;;;;30.67;24.23;;;18.50;73.10;;;;;;5033922;28;20057;-71
2022/03/24 00:56:28;;;;;;;31.92;25.10;;;18.50;77.60;;;;;;5017821;28;20132;-71
2022/03/24 00:58:55;;;;;;;30.60;24.23;;;18.40;77.30;;;;;;5035981;28;20128;-71
2022/03/24 01:01:21;;;;;;;32.72;24.38;;;18.50;77.40;;;;;;5035750;28;20044;-71
2022/03/24 01:03:49;;;;;;;30.75;25.05;;;18.50;77.30;;;;;;5035520;28;20116;-71
2022/03/24 01:06:16;;;;;;;33.88;25.67;;;18.50;77.30;;;;;;5018858;28;20045;-71
2022/03/24 01:08:42;;;;;;;33.03;24.63;;;18.40;74.50;;;;;;5026677;28;20108;-70
2022/03/24 01:11:08;;;;;;;34.03;24.55;;;18.50;77.30;;;;;;5015004;28;20443;-70
2022/03/24 01:13:35;;;;;;;30.27;24.30;;;18.10;77.20;;;;;;5018579;28;20104;-70
2022/03/24 01:16:03;;;;;;;35.38;25.75;;;18.30;77.50;;;;;;5035453;28;20045;-71
2022/03/24 01:18:32;;;;;;;31.70;24.50;;;18.50;77.30;;;;;;5035399;28;20087;-71
2022/03/24 01:21:00;;;;;;;32.95;25.42;;;18.50;77.60;;;;;;5035698;28;20454;-71
2022/03/24 01:23:26;;;;;;;31.35;25.30;;;18.20;77.30;;;;;;5051753;28;20107;-71
2022/03/24 01:25:54;;;;;;;33.75;26.48;;;18.50;77.50;;;;;;5027464;28;20050;-71
2022/03/24 01:28:20;;;;;;;33.20;25.17;;;18.10;73.70;;;;;;5015310;28;20050;-70
2022/03/24 01:30:46;;;;;;;33.45;24.33;;;18.40;77.40;;;;;;5036464;28;20129;-67
2022/03/24 01:33:12;;;;;;;32.80;25.58;;;18.30;74.70;;;;;;5035092;28;20511;-66
2022/03/24 01:35:38;;;;;;;31.08;24.52;;;18.20;77.40;;;;;;5035315;28;20037;-66
2022/03/24 01:38:03;;;;;;;33.28;25.88;;;18.20;77.60;;;;;;5035383;28;20033;-71
2022/03/24 01:40:29;;;;;;;31.50;24.83;;;18.30;74.70;;;;;;5045950;28;20048;-71
2022/03/24 01:42:55;;;;;;;32.10;25.45;;;18.30;77.40;;;;;;5032001;28;20038;-71
2022/03/24 01:45:21;;;;;;;36.92;26.88;;;18.50;74.60;;;;;;5015434;28;20057;-71
2022/03/24 01:47:46;;;;;;;32.63;24.92;;;18.30;77.50;;;;;;5015318;28;20396;-71
2022/03/24 01:50:12;;;;;;;34.33;26.30;;;18.20;77.30;;;;;;5030534;28;20076;-71
2022/03/24 01:52:38;;;;;;;32.60;25.63;;;18.30;74.50;;;;;;5035393;28;20055;-71
2022/03/24 01:55:05;;;;;;;34.65;24.88;;;18.20;77.30;;;;;;5013709;28;20121;-71
2022/03/24 01:57:31;;;;;;;34.53;26.73;;;18.20;74.60;;;;;;5032852;28;20041;-71
2022/03/24 01:59:57;;;;;;;32.40;25.92;;;18.20;77.60;;;;;;5023361;28;20038;-71
2022/03/24 02:02:23;;;;;;;35.03;26.17;;;18.30;77.50;;;;;;5030713;28;20111;-71
2022/03/24 02:04:49;;;;;;;35.38;26.58;;;18.30;77.50;;;;;;5034808;28;20046;-71
2022/03/24 02:07:15;;;;;;;33.65;25.98;;;;;;;;;;5034732;28;20072;-71
2022/03/24 02:09:41;;;;;;;35.95;25.85;;;;;;;;;;5033942;28;20053;-71
2022/03/24 02:12:08;;;;;;;33.97;25.08;;;18.30;77.50;;;;;;5040930;28;20057;-71
2022/03/24 02:14:34;;;;;;;33.92;26.42;;;18.00;77.40;;;;;;5054562;28;20051;-71
2022/03/24 02:17:00;;;;;;;36.05;26.85;;;18.20;78.00;;;;;;5012505;28;20125;-72
2022/03/24 02:19:26;;;;;;;34.63;26.80;;;18.40;77.60;;;;;;5014777;28;20049;-70
2022/03/24 02:21:53;;;;;;;36.58;26.90;;;18.40;77.60;;;;;;5018812;28;20394;-71
2022/03/24 02:24:21;;;;;;;36.67;27.52;;;18.30;77.60;;;;;;5014708;28;20049;-72
2022/03/24 02:26:46;;;;;;;35.55;27.30;;;18.00;77.40;;;;;;5014332;28;20045;-71
2022/03/24 02:29:13;;;;;;;35.25;26.75;;;18.20;77.50;;;;;;5014129;28;20054;-71
2022/03/24 02:31:43;;;;;;;36.83;28.33;;;18.20;77.50;;;;;;5014572;28;20077;-72
2022/03/24 02:36:55;;;;;;;33.95;25.38;;;18.40;77.60;;;;;;5014468;28;20065;-71
2022/03/24 02:39:21;;;;;;;34.08;25.90;;;18.10;74.60;;;;;;5014507;28;20034;-71
2022/03/24 02:41:49;;;;;;;34.85;26.50;;;18.20;77.30;;;;;;5022874;28;20052;-71
2022/03/24 02:44:17;;;;;;;33.85;26.50;;;18.10;77.30;;;;;;5034105;28;20049;-70
2022/03/24 02:46:49;;;;;;;33.80;26.33;;;18.10;77.30;;;;;;5034079;28;20112;-71
2022/03/24 02:49:16;;;;;;;35.00;26.60;;;18.30;77.60;;;;;;5033947;28;20081;-71
2022/03/24 02:51:42;;;;;;;35.83;27.23;;;18.20;77.30;;;;;;5000420;28;20161;-71
2022/03/24 02:54:08;;;;;;;35.85;25.52;;;18.10;77.30;;;;;;5049251;28;20052;-71
2022/03/24 02:56:35;;;;;;;34.63;26.73;;;18.10;77.30;;;;;;5035971;28;20448;-71
2022/03/24 02:59:01;;;;;;;32.78;26.05;;;18.10;77.20;;;;;;5033208;28;20041;-71
2022/03/24 03:01:27;;;;;;;32.05;25.73;;;17.90;77.70;;;;;;5015597;28;20053;-71
2022/03/24 03:03:53;;;;;;;33.65;26.05;;;17.90;77.20;;;;;;5033556;28;20049;-66
2022/03/24 03:06:19;;;;;;;39.20;27.33;;;18.10;77.30;;;;;;5015572;28;20049;-66
2022/03/24 03:08:51;;;;;;;33.40;26.23;;;18.00;77.30;;;;;;5024996;28;20578;-66
2022/03/24 03:11:17;;;;;;;38.42;27.92;;;17.90;77.30;;;;;;5033508;28;20039;-66
2022/03/24 03:13:45;;;;;;;35.67;28.13;;;18.10;77.40;;;;;;5033543;28;20455;-66
2022/03/24 03:16:12;;;;;;;34.05;26.92;;;17.70;77.30;;;;;;5033304;28;20041;-67
2022/03/24 03:18:39;;;;;;;36.70;27.88;;;;;;;;;;5034320;28;20048;-66
2022/03/24 03:21:04;;;;;;;37.53;27.10;;;17.90;74.70;;;;;;5014795;28;20045;-66
2022/03/24 03:23:30;;;;;;;34.92;27.55;;;18.00;77.50;;;;;;5032836;28;20033;-70
2022/03/24 03:25:56;;;;;;;35.95;28.15;;;17.80;77.80;;;;;;5013939;28;20157;-71
2022/03/24 03:28:22;;;;;;;37.13;28.15;;;18.10;77.70;;;;;;5013543;28;20045;-69
2022/03/24 03:30:47;;;;;;;35.47;28.73;;;18.00;77.70;;;;;;5030283;28;20045;-71
2022/03/24 03:33:13;;;;;;;38.00;28.25;;;17.70;74.80;;;;;;5015487;28;20384;-71
2022/03/24 03:35:39;;;;;;;40.45;28.17;;;18.00;77.60;;;;;;5033047;28;20135;-71
2022/03/24 03:38:05;;;;;;;37.72;28.23;;;18.00;77.90;;;;;;5033703;28;20053;-71
2022/03/24 03:40:31;;;;;;;38.15;28.00;;;;;;;;;;5038564;28;20446;-71
2022/03/24 03:42:57;;;;;;;38.55;27.85;;;17.90;77.70;;;;;;5014139;28;20084;-71
2022/03/24 03:45:23;;;;;;;37.05;28.80;;;17.90;74.60;;;;;;5012483;28;20077;-71
2022/03/24 03:47:49;;;;;;;36.10;27.90;;;17.90;77.60;;;;;;5013504;28;20045;-71
2022/03/24 03:50:15;;;;;;;37.33;28.10;;;;;;;;;;5013561;28;20448;-69
2022/03/24 03:52:40;;;;;;;37.40;29.95;;;17.80;77.60;;;;;;5033786;28;20045;-71
2022/03/24 03:55:07;;;;;;;36.53;28.33;;;17.90;77.70;;;;;;5033199;28;20042;-71
2022/03/24 03:57:32;;;;;;;49.78;29.75;;;18.00;75.30;;;;;;5014642;28;20045;-70
2022/03/24 04:00:52;;;;;;;35.33;27.85;;;17.80;77.60;;;;;;5013635;28;20038;-71
2022/03/24 04:02:47;;;;;;;40.40;29.45;;;17.70;77.50;;;;;;5042625;28;20523;-71
2022/03/24 04:05:13;;;;;;;38.53;29.05;;;17.90;77.60;;;;;;5032870;28;20056;-71
2022/03/24 04:07:38;;;;;;;40.55;29.70;;;18.00;77.70;;;;;;5033122;28;20103;-71
2022/03/24 04:10:04;;;;;;;39.92;30.33;;;17.80;77.70;;;;;;5033119;28;20406;-71
2022/03/24 04:12:30;;;;;;;37.33;28.55;;;17.80;77.80;;;;;;5038313;28;20049;-72
2022/03/24 04:14:57;;;;;;;40.47;29.73;;;;;;;;;;5046201;28;20491;-71
2022/03/24 04:17:22;;;;;;;40.15;29.27;;;17.70;77.60;;;;;;5013290;28;20045;-71
2022/03/24 04:19:48;;;;;;;37.28;28.52;;;17.90;77.10;;;;;;5013852;28;20104;-72
2022/03/24 04:22:13;;;;;;;38.30;28.90;;;17.80;77.60;;;;;;5019405;28;20041;-71
2022/03/24 04:24:39;;;;;;;38.65;28.10;;;17.70;77.50;;;;;;5033734;28;20046;-72
2022/03/24 04:27:06;;;;;;;37.88;28.38;;;17.70;74.60;;;;;;5032935;28;20415;-71
2022/03/24 04:29:31;;;;;;;40.97;29.38;;;17.90;77.40;;;;;;5032452;28;20049;-70
2022/03/24 04:31:57;;;;;;;37.03;28.05;;;17.60;74.50;;;;;;5030281;28;20038;-71
2022/03/24 04:34:23;;;;;;;34.67;27.00;;;17.70;77.40;;;;;;5029010;28;20049;-72
2022/03/24 04:36:49;;;;;;;34.42;26.15;;;18.00;77.50;;;;;;5036470;28;20403;-71
2022/03/24 04:39:15;;;;;;;35.28;28.33;;;17.90;74.60;;;;;;5036123;28;20460;-71
2022/03/24 04:41:41;;;;;;;33.67;24.95;;;17.80;77.20;;;;;;5036400;28;20388;-71
2022/03/24 04:44:07;;;;;;;33.60;25.67;;;17.50;77.20;;;;;;5035586;28;20479;-71
2022/03/24 04:46:33;;;;;;;36.72;26.58;;;17.50;77.10;;;;;;5036278;28;20038;-71
2022/03/24 04:48:59;;;;;;;32.75;24.65;;;17.60;77.20;;;;;;5031969;28;20046;-72
2022/03/24 04:51:25;;;;;;;30.77;24.25;;;;;;;;;;5016106;28;20049;-72
2022/03/24 04:53:51;;;;;;;30.52;24.30;;;17.80;77.30;;;;;;5016411;28;20069;-71
2022/03/24 04:56:16;;;;;;;36.67;26.05;;;17.50;74.40;;;;;;5046328;28;20041;-72
2022/03/24 04:58:42;;;;;;;33.97;24.98;;;17.40;77.10;;;;;;5055913;28;20037;-72
2022/03/24 05:01:08;;;;;;;32.90;25.10;;;17.70;77.30;;;;;;5055727;28;20179;-71
2022/03/24 05:03:34;;;;;;;33.72;25.95;;;17.60;74.60;;;;;;5055565;28;20471;-73
2022/03/24 05:06:00;;;;;;;33.15;23.92;;;;;;;;;;5046423;28;20077;-71
2022/03/24 05:08:25;;;;;;;36.17;26.83;;;17.60;77.50;;;;;;5031684;28;20131;-71
2022/03/24 05:10:51;;;;;;;33.25;25.63;;;17.60;77.40;;;;;;5035763;28;20511;-71
2022/03/24 05:13:17;;;;;;;34.40;26.67;;;17.80;77.50;;;;;;5035388;28;20049;-72
2022/03/24 05:15:43;;;;;;;33.65;26.10;;;17.70;77.60;;;;;;5035807;28;20049;-72
2022/03/24 05:18:09;;;;;;;38.15;26.88;;;17.60;77.60;;;;;;5036602;28;20044;-72
2022/03/24 05:20:34;;;;;;;35.55;27.75;;;17.60;77.40;;;;;;5035696;28;20042;-71
2022/03/24 05:23:01;;;;;;;34.85;27.08;;;17.90;74.90;;;;;;5031768;28;20479;-71
2022/03/24 05:25:27;;;;;;;34.75;26.63;;;17.60;77.50;;;;;;5015834;28;20403;-71
2022/03/24 05:27:52;;;;;;;35.38;26.98;;;17.50;77.60;;;;;;5027682;28;20048;-71
2022/03/24 05:30:19;;;;;;;38.25;28.25;;;;;;;;;;5035234;28;20096;-71
2022/03/24 05:32:45;;;;;;;36.80;26.30;;;;;;;;;;5035404;28;20097;-72
2022/03/24 05:35:13;;;;;;;38.85;27.48;;;17.60;77.60;;;;;;5035468;28;20088;-71
2022/03/24 05:37:38;;;;;;;38.95;27.45;;;17.50;77.60;;;;;;5035954;28;20399;-70
2022/03/24 05:40:05;;;;;;;36.80;26.95;;;17.50;75.00;;;;;;5031044;28;20038;-71
2022/03/24 05:42:30;;;;;;;39.10;27.73;;;17.40;77.70;;;;;;5015203;28;20050;-71
2022/03/24 05:44:56;;;;;;;41.53;27.95;;;17.50;77.80;;;;;;5014543;28;20037;-72
2022/03/24 05:47:22;;;;;;;39.40;28.80;;;17.40;74.90;;;;;;5015335;28;20058;-71
2022/03/24 05:49:48;;;;;;;37.55;27.73;;;;;;;;;;5044644;28;20060;-70
2022/03/24 05:52:14;;;;;;;39.92;28.45;;;17.50;74.90;;;;;;5018201;28;20052;-71
2022/03/24 05:54:40;;;;;;;40.28;27.92;;;17.60;77.70;;;;;;5035610;28;20383;-71
2022/03/24 05:57:06;;;;;;;35.60;26.90;;;;;;;;;;5029962;28;20041;-71
2022/03/24 05:59:32;;;;;;;32.85;25.52;;;17.60;77.50;;;;;;5028733;28;20085;-71
2022/03/24 06:01:58;;;;;;;34.97;26.48;;;17.70;77.60;;;;;;5055203;28;20119;-71
2022/03/24 06:04:23;;;;;;;35.25;26.73;;;17.70;74.80;;;;;;5054491;28;20045;-71
2022/03/24 06:06:53;;;;;;;32.45;24.65;;;17.60;77.40;;;;;;5045844;28;20073;-71
2022/03/24 06:09:21;;;;;;;40.92;27.02;;;;;;;;;;5054072;28;20064;-67
2022/03/24 06:11:47;;;;;;;33.42;25.52;;;;;;;;;;5053182;28;20053;-71
2022/03/24 06:14:13;;;;;;;32.25;25.10;;;17.80;77.30;;;;;;5016211;28;20060;-72
2022/03/24 06:16:40;;;;;;;33.90;24.58;;;;;;;;;;5032474;28;20124;-71
2022/03/24 06:19:07;;;;;;;32.53;24.23;;;17.70;77.10;;;;;;5034341;28;20049;-71
2022/03/24 06:21:33;;;;;;;32.78;24.80;;;18.00;77.10;;;;;;5035912;28;20049;-71
2022/03/24 06:23:59;;;;;;;34.95;25.52;;;17.60;76.90;;;;;;5034167;28;20119;-71
2022/03/24 06:26:24;;;;;;;33.13;25.13;;;18.10;77.10;;;;;;5034485;28;20447;-71
2022/03/24 06:28:52;;;;;;;31.27;23.98;;;17.70;74.20;;;;;;5034306;28;20400;-71
2022/03/24 06:31:18;;;;;;;32.70;25.05;;;17.90;76.90;;;;;;5032842;28;20049;-71
2022/03/24 06:33:44;;;;;;;35.28;25.17;;;18.10;76.90;;;;;;5034312;28;20042;-71
2022/03/24 06:36:10;;;;;;;35.33;25.42;;;18.30;76.80;;;;;;5034033;28;20044;-72
2022/03/24 06:38:39;;;;;;;33.60;25.20;;;18.40;76.70;;;;;;5016258;28;20427;-71
2022/03/24 06:41:07;;;;;;;34.92;25.52;;;18.40;76.70;;;;;;5034250;28;20049;-71
2022/03/24 06:43:36;;;;;;;33.50;24.58;;;18.40;76.50;;;;;;5034666;28;20056;-71
2022/03/24 06:46:02;;;;;;;37.78;26.38;;;18.30;73.50;;;;;;5034169;28;20376;-71
2022/03/24 06:48:28;;;;;;;34.33;25.17;;;18.70;76.30;;;;;;5026120;28;20038;-71
2022/03/24 06:50:54;;;;;;;36.75;26.05;;;18.50;76.00;;;;;;5014004;28;20045;-71
2022/03/24 06:53:20;;;;;;;37.45;27.33;;;19.00;73.20;;;;;;5025281;28;20053;-71
2022/03/24 06:55:45;;;;;;;35.38;27.48;;;18.80;75.80;;;;;;5033815;28;20037;-71
2022/03/24 06:58:11;;;;;;;37.03;26.77;;;18.90;72.80;;;;;;5015598;28;20451;-72
2022/03/24 07:00:38;;;;;;;36.00;26.30;;;19.20;75.60;;;;;;5033586;28;20037;-71
2022/03/24 07:03:05;;;;;;;36.10;26.35;;;19.00;75.30;;;;;;5034578;28;20105;-71
2022/03/24 07:05:31;;;;;;;33.53;24.88;;;19.00;75.20;;;;;;5037121;28;20124;-71
2022/03/24 07:07:57;;;;;;;33.75;25.90;;;19.30;75.20;;;;;;5014007;28;20129;-70
2022/03/24 07:10:23;;;;;;;35.63;25.65;;;19.30;72.30;;;;;;5014007;28;20397;-71
2022/03/24 07:12:49;;;;;;;31.65;24.52;;;19.50;75.10;;;;;;5013769;28;20141;-71
2022/03/24 07:15:15;;;;;;;33.80;25.20;;;19.60;75.00;;;;;;5028544;28;20066;-71
2022/03/24 07:17:41;;;;;;;31.85;25.08;;;19.80;74.90;;;;;;5025994;28;20049;-66
2022/03/24 07:20:08;;;;;;;31.55;24.88;;;19.60;74.70;;;;;;5025977;28;20048;-66
2022/03/24 07:22:37;;;;;;;32.10;23.13;;;20.00;74.80;;;;;;5022293;28;20038;-66
2022/03/24 07:25:05;;;;;;;33.17;25.85;;;19.90;74.60;;;;;;5014363;28;20045;-66
2022/03/24 07:27:30;;;;;;;31.08;24.92;;;19.90;74.40;;;;;;5028669;28;20037;-61
2022/03/24 07:29:56;;;;;;;33.13;24.80;;;19.90;71.40;;;;;;5032074;28;20549;-71
2022/03/24 07:32:22;;;;;;;33.88;26.27;;;20.30;74.30;;;;;;5027482;28;20041;-72
2022/03/24 07:34:48;;;;;;;37.20;25.73;;;20.10;74.10;;;;;;5031857;28;20722;-73
2022/03/24 07:37:14;;;;;;;31.08;24.25;;;;;;;;;;5032235;28;20037;-73
2022/03/24 07:39:40;;;;;;;30.60;24.30;;;20.60;74.20;;;;;;5024139;28;20046;-72
2022/03/24 07:42:06;;;;;;;33.97;24.75;;;20.60;71.40;;;;;;5027925;28;20038;-73
2022/03/24 07:44:32;;;;;;;32.58;26.38;;;20.60;74.00;;;;;;5013622;28;20389;-73
2022/03/24 07:46:58;;;;;;;32.15;24.17;;;;;;;;;;5031555;28;20041;-73
2022/03/24 07:49:24;;;;;;;31.50;25.00;;;20.70;73.80;;;;;;5014177;28;20145;-73
2022/03/24 07:51:50;;;;;;;33.10;24.92;;;20.90;73.70;;;;;;5033285;28;20509;-73
2022/03/24 07:54:16;;;;;;;32.95;25.02;;;20.90;71.10;;;;;;5030453;28;20046;-73
2022/03/24 07:56:43;;;;;;;31.08;24.65;;;;;;;;;;5030468;28;20045;-72
2022/03/24 07:59:08;;;;;;;32.30;23.30;;;21.10;73.40;;;;;;5009720;28;20048;-74
2022/03/24 08:01:35;;;;;;;32.78;24.08;;;21.00;73.30;;;;;;5014891;28;20129;-73
2022/03/24 08:04:02;;;;;;;31.02;23.70;;;21.10;73.30;;;;;;5033184;28;20099;-74
2022/03/24 08:06:28;;;;;;;27.50;22.85;;;20.90;73.00;;;;;;5031246;28;20038;-74
2022/03/24 08:08:55;;;;;;;31.52;22.95;;;21.30;73.20;;;;;;5017643;28;20108;-74
2022/03/24 08:11:25;;;;;;;35.13;22.98;;;21.30;73.00;;;;;;5024189;28;20068;-63
2022/03/24 08:13:53;;;;;;;34.97;24.10;;;21.40;73.10;;;;;;5026292;28;20471;-66
2022/03/24 08:16:24;;;;;;;29.55;22.92;;;21.60;73.10;;;;;;5023460;28;20370;-64
2022/03/24 08:18:50;;;;;;;27.75;22.95;;;21.70;73.10;;;;;;5036681;28;20052;-67
2022/03/24 08:21:15;;;;;;;31.35;22.63;;;21.60;73.00;;;;;;5036504;28;20535;-74
2022/03/24 08:23:41;;;;;;;27.15;21.85;;;21.70;72.90;;;;;;5036351;28;20087;-62
2022/03/24 08:26:07;;;;;;;30.63;21.88;;;21.60;72.70;;;;;;5035075;28;20064;-63
2022/03/24 08:28:33;;;;;;;29.35;22.75;;;21.80;72.80;;;;;;5030412;28;20049;-73
2022/03/24 08:30:59;;;;;;;28.40;21.52;;;21.70;72.70;;;;;;5033039;28;20056;-68
2022/03/24 08:33:24;;;;;;;27.98;21.35;;;21.90;72.70;;;;;;5035460;28;20081;-69
2022/03/24 08:35:50;;;;;;;31.15;21.23;;;21.80;70.00;;;;;;5036582;28;20046;-69
2022/03/24 08:38:16;;;;;;;27.15;21.63;;;21.80;72.50;;;;;;5035225;28;20088;-74
2022/03/24 08:40:42;;;;;;;28.30;21.25;;;21.90;72.60;;;;;;5035194;28;20045;-74
2022/03/24 08:43:08;;;;;;;28.70;21.52;;;22.00;72.60;;;;;;5036393;28;20124;-74
2022/03/24 08:45:34;;;;;;;26.25;20.48;;;;;;;;;;5035231;28;20117;-74
2022/03/24 08:48:00;;;;;;;26.88;20.63;;;22.00;68.00;;;;;;5023115;28;20057;-74
2022/03/24 08:50:26;;;;;;;27.58;20.25;;;;;;;;;;5025113;28;20045;-74
2022/03/24 08:52:52;;;;;;;25.50;19.85;;;22.10;72.60;;;;;;5036215;28;20060;-67
2022/03/24 08:55:18;;;;;;;26.55;20.15;;;22.00;69.60;;;;;;5035058;28;20033;-64
2022/03/24 08:57:44;;;;;;;28.67;20.55;;;22.10;72.50;;;;;;5033842;28;20060;-66
2022/03/24 09:00:15;;;;;;;27.80;21.00;;;22.10;72.50;;;;;;5033841;28;20112;-72
2022/03/24 09:02:48;;;;;;;25.05;19.98;;;22.30;72.70;;;;;;5032210;28;20084;-62
2022/03/24 09:05:16;;;;;;;24.48;19.17;;;22.10;70.10;;;;;;5028249;28;20045;-62
2022/03/24 09:07:42;;;;;;;27.35;19.23;;;22.20;72.50;;;;;;5035918;28;20184;-71
2022/03/24 09:10:09;;;;;;;26.92;19.15;;;22.20;69.40;;;;;;5034929;28;20530;-64
2022/03/24 09:12:37;;;;;;;24.40;18.58;;;22.30;72.50;;;;;;5033816;28;20050;-63
2022/03/24 09:15:05;;;;;;;26.63;18.67;;;22.30;72.50;;;;;;5018500;28;20049;-63
2022/03/24 09:17:32;;;;;;;24.35;19.60;;;22.50;72.60;;;;;;5034300;28;20104;-62
2022/03/24 09:19:58;;;;;;;24.73;18.35;;;22.30;70.90;;;;;;5034517;28;20045;-66
2022/03/24 09:22:24;;;;;;;25.48;19.30;;;22.20;72.40;;;;;;5029918;28;20380;-67
2022/03/24 09:24:50;;;;;;;25.08;18.42;;;;;;;;;;5034905;28;20095;-70
2022/03/24 09:27:16;;;;;;;22.83;18.55;;;22.40;72.60;;;;;;5035586;28;20037;-67
2022/03/24 09:29:42;;;;;;;23.60;17.48;;;22.20;69.70;;;;;;5032946;28;20518;-68
2022/03/24 09:32:12;;;;;;;25.42;18.70;;;22.20;72.40;;;;;;5033017;28;20042;-67
2022/03/24 09:34:39;;;;;;;23.38;18.42;;;22.30;72.90;;;;;;5035497;28;20491;-67
2022/03/24 09:37:05;;;;;;;22.40;17.70;;;22.30;72.60;;;;;;5032976;28;20046;-74
2022/03/24 09:39:31;;;;;;;25.38;18.00;;;22.40;72.60;;;;;;5027259;28;20045;-62
2022/03/24 09:41:57;;;;;;;23.70;17.20;;;22.10;72.50;;;;;;5017397;28;20054;-72
2022/03/24 09:44:24;;;;;;;22.25;17.13;;;22.40;72.60;;;;;;5000378;28;20037;-63
2022/03/24 09:46:50;;;;;;;22.38;16.75;;;22.10;69.80;;;;;;5011498;28;20076;-67
2022/03/24 09:49:16;;;;;;;25.33;17.52;;;22.20;70.00;;;;;;5034055;28;20049;-70
2022/03/24 09:51:43;;;;;;;20.80;16.33;;;22.20;72.60;;;;;;5032849;28;20127;-67
2022/03/24 09:54:10;;;;;;;25.00;17.30;;;22.10;70.00;;;;;;5034858;28;20046;-69
2022/03/24 09:56:36;;;;;;;22.17;16.60;;;22.20;72.60;;;;;;5026528;28;20033;-63
2022/03/24 09:59:02;;;;;;;22.25;17.25;;;22.50;70.00;;;;;;5015891;28;20061;-64
2022/03/24 10:01:28;;;;;;;21.83;16.42;;;22.20;72.80;;;;;;5033499;28;20041;-62
2022/03/24 10:04:10;;;;;;;20.67;17.08;;;22.20;72.80;;;;;;5034237;28;20055;-71
2022/03/24 10:06:39;;;;;;;26.90;19.02;;;21.90;72.60;;;;;;5027637;28;20536;-64
2022/03/24 10:09:05;;;;;;;27.38;17.25;;;;;;;;;;5031901;28;20053;-69
2022/03/24 10:11:31;;;;;;;22.92;17.67;;;22.30;72.80;;;;;;5008232;28;20156;-73
2022/03/24 10:13:58;;;;;;;25.50;17.83;;;22.20;72.70;;;;;;5014390;28;20488;-66
2022/03/24 10:16:33;;;;;;;28.35;19.33;;;22.30;72.80;;;;;;5014903;28;20042;-71
2022/03/24 10:19:01;;;;;;;22.67;16.88;;;22.10;72.60;;;;;;5033374;28;20128;-72
2022/03/24 10:21:33;;;;;;;25.95;18.55;;;22.30;72.70;;;;;;5024154;28;20431;-64
2022/03/24 10:24:02;;;;;;;23.65;17.63;;;22.20;72.70;;;;;;5002384;28;20049;-71
2022/03/24 10:27:03;;;;;;;26.40;18.88;;;22.20;70.00;;;;;;5030143;28;20041;-72
2022/03/24 10:29:29;;;;;;;22.27;17.17;;;22.10;72.80;;;;;;4934253;29;20466;-72
2022/03/24 10:32:00;;;;;;;22.35;16.90;;;22.10;73.30;;;;;;4935296;29;20147;-72
2022/03/24 10:34:40;;;;;;;23.30;16.83;;;22.20;73.00;;;;;;4927542;29;20056;-62
2022/03/24 10:37:17;;;;;;;26.17;17.63;;;22.20;73.10;;;;;;4948165;29;20054;-72
2022/03/24 10:39:55;;;;;;;21.27;15.93;;;22.10;73.10;;;;;;4929513;29;20043;-70
2022/03/24 10:42:23;;;;;;;25.60;17.38;;;22.20;73.20;;;;;;4921786;29;20051;-72
2022/03/24 10:45:02;;;;;;;26.27;17.73;;;22.00;73.20;;;;;;4930197;29;20048;-68
2022/03/24 10:48:00;;;;;;;26.85;19.42;;;22.20;68.40;;;;;;4917402;29;20179;-69
2022/03/24 10:50:40;;;;;;;27.52;18.55;;;22.10;73.10;;;;;;4929047;29;20039;-73
2022/03/24 10:53:16;;;;;;;26.80;18.67;;;22.10;69.10;;;;;;4934661;29;20051;-68
2022/03/24 10:55:45;;;;;;;27.00;18.10;;;22.20;73.10;;;;;;4915123;29;20063;-61
2022/03/24 10:58:24;;;;;;;29.40;20.33;;;22.00;72.90;;;;;;4895727;29;20044;-61
2022/03/24 11:00:54;;;;;;;30.42;19.83;;;22.50;69.30;;;;;;4915607;29;20534;-61
2022/03/24 11:03:20;;;;;;;31.05;20.52;;;22.30;71.20;;;;;;4921742;29;20089;-62
2022/03/24 11:05:46;;;;;;;28.58;19.42;;;22.30;73.00;;;;;;4934402;28;20081;-72
2022/03/24 11:08:15;;;;;;;30.52;20.35;;;22.30;73.00;;;;;;4996194;28;20069;-65
2022/03/24 11:10:50;;;;;;;26.55;19.10;;;22.10;72.90;;;;;;4996573;28;20052;-65
2022/03/24 11:13:25;;;;;;;27.13;19.00;;;22.30;70.40;;;;;;4995838;28;20562;-61
2022/03/24 11:15:52;;;;;;;27.52;19.83;;;22.20;72.90;;;;;;5013977;28;20061;-62
2022/03/24 11:18:22;;;;;;;28.40;20.80;;;22.10;72.80;;;;;;5013959;28;20044;-62
2022/03/24 11:20:49;;;;;;;29.33;19.20;;;22.30;73.10;;;;;;5023964;28;20049;-62
2022/03/24 11:23:24;;;;;;;32.70;21.70;;;22.10;72.80;;;;;;5031445;28;20041;-65
2022/03/24 11:25:56;;;;;;;28.30;20.58;;;22.40;73.00;;;;;;5033433;28;20406;-66
2022/03/24 11:28:22;;;;;;;26.75;18.48;;;22.10;72.90;;;;;;5033193;28;20454;-65
2022/03/24 11:30:47;;;;;;;26.13;18.98;;;22.40;72.90;;;;;;4999080;28;20053;-64
2022/03/24 11:33:14;;;;;;;25.33;17.33;;;22.20;72.90;;;;;;5014855;28;20041;-65
2022/03/24 11:35:40;;;;;;;29.98;20.63;;;22.30;70.10;;;;;;5032415;28;20084;-65
2022/03/24 11:38:06;;;;;;;38.33;21.15;;;22.20;73.00;;;;;;5031942;28;20029;-66
2022/03/24 11:40:33;;;;;;;31.60;20.15;;;22.30;72.80;;;;;;5033688;28;20128;-65
2022/03/24 11:43:05;;;;;;;37.50;19.02;;;22.30;70.20;;;;;;5035929;28;20422;-65
2022/03/24 11:45:42;;;;;;;32.63;18.40;;;22.40;73.00;;;;;;5019363;28;20106;-65
2022/03/24 11:48:09;;;;;;;30.25;19.55;;;22.20;73.10;;;;;;5017627;28;20081;-63
2022/03/24 11:51:03;;;;;;;29.10;20.23;;;22.40;72.80;;;;;;5034437;28;20044;-61
2022/03/24 11:53:29;;;;;;;32.65;20.90;;;22.60;68.30;;;;;;5033426;28;20065;-61
2022/03/24 11:56:01;;;;;;;29.45;19.73;;;22.30;69.70;;;;;;5035957;28;20045;-61
2022/03/24 11:58:54;;;;;;;30.13;18.60;;;22.50;73.00;;;;;;5036568;28;20042;-64
2022/03/24 12:01:19;;;;;;;29.98;19.30;;;22.50;72.80;;;;;;5036917;28;20291;-64
2022/03/24 12:03:51;;;;;;;28.48;19.80;;;22.70;73.00;;;;;;5036684;28;20038;-63
2022/03/24 12:06:17;;;;;;;25.10;17.85;;;;;;;;;;5030970;28;20041;-70
2022/03/24 12:08:47;;;;;;;26.17;18.08;;;22.80;73.10;;;;;;5036391;28;20045;-61
2022/03/24 12:11:31;;;;;;;27.50;18.23;;;22.50;73.10;;;;;;5030398;28;20050;-61
2022/03/24 12:14:00;;;;;;;24.92;16.77;;;22.50;73.10;;;;;;5016640;28;20082;-61
2022/03/24 12:16:27;;;;;;;28.58;18.02;;;22.70;73.30;;;;;;5016863;28;20107;-61
2022/03/24 12:18:53;;;;;;;22.95;16.50;;;22.50;70.40;;;;;;5016798;28;20046;-61
2022/03/24 12:21:23;;;;;;;23.25;16.92;;;22.70;73.20;;;;;;5017113;28;20046;-61
2022/03/24 12:24:02;;;;;;;29.67;18.65;;;22.70;71.40;;;;;;5017668;28;20369;-62
2022/03/24 12:26:28;;;;;;;23.30;16.83;;;22.70;73.40;;;;;;5036816;28;20076;-63
2022/03/24 12:29:12;;;;;;;29.88;19.35;;;22.60;73.30;;;;;;5035611;28;20107;-63
2022/03/24 12:32:05;;;;;;;29.63;21.20;;;22.60;73.20;;;;;;5036319;28;20049;-61
2022/03/24 12:34:37;;;;;;;27.10;20.00;;;22.90;73.30;;;;;;5033488;28;20050;-61
2022/03/24 12:37:06;;;;;;;27.00;21.60;;;22.60;73.30;;;;;;5017309;28;20376;-61
2022/03/24 12:39:38;;;;;;;30.10;20.73;;;22.70;73.40;;;;;;5016750;28;20356;-61